Time;durP1;ratioP1;P1;durP2;ratioP2;P2;SDS_P1;SDS_P2;PMS_P1;PMS_P2;Temp;Humidity;BMP_temperature;BMP_pressure;BME280_temperature;BME280_humidity;BME280_pressure;Samples;Min_cycle;Max_cycle;Signal;HPM_P1;HPM_P2
2022/09/10 00:00:32;;;;;;;5.93;1.30;;;18.80;99.90;;;;;;5070512;28;20028;-81
2022/09/10 00:02:58;;;;;;;6.28;1.30;;;18.70;99.90;;;;;;5071697;28;20089;-82
2022/09/10 00:05:23;;;;;;;6.30;1.15;;;18.70;99.90;;;;;;5071741;28;20544;-81
2022/09/10 00:07:49;;;;;;;7.82;1.38;;;18.70;99.90;;;;;;5072216;28;20051;-82
2022/09/10 00:10:15;;;;;;;10.77;1.52;;;18.70;99.90;;;;;;5071820;28;20139;-82
2022/09/10 00:12:41;;;;;;;8.80;1.00;;;18.60;99.90;;;;;;5071652;28;20037;-81
2022/09/10 00:15:08;;;;;;;7.68;1.20;;;18.50;99.90;;;;;;5071728;28;20029;-81
2022/09/10 00:17:35;;;;;;;7.03;0.93;;;18.50;99.90;;;;;;5071676;28;20499;-82
2022/09/10 00:20:02;;;;;;;6.68;0.90;;;18.50;99.90;;;;;;5071661;28;20377;-82
2022/09/10 00:22:27;;;;;;;10.85;1.23;;;18.50;99.90;;;;;;5071438;28;20024;-81
2022/09/10 00:24:56;;;;;;;9.48;1.40;;;18.50;99.90;;;;;;5071532;28;20503;-81
2022/09/10 00:27:22;;;;;;;7.82;1.08;;;18.50;99.90;;;;;;5071312;28;20043;-81
2022/09/10 00:29:52;;;;;;;10.93;1.23;;;18.50;99.90;;;;;;5071706;28;20023;-81
2022/09/10 00:32:20;;;;;;;6.18;0.88;;;18.50;99.90;;;;;;5067992;28;20143;-82
2022/09/10 00:34:46;;;;;;;8.10;1.17;;;18.60;99.90;;;;;;5071585;28;20021;-82
2022/09/10 00:37:13;;;;;;;7.40;1.65;;;18.60;99.90;;;;;;5071243;28;20543;-81
2022/09/10 00:39:39;;;;;;;8.68;1.30;;;18.60;99.90;;;;;;5068522;28;20101;-82
2022/09/10 00:42:04;;;;;;;8.40;1.95;;;18.60;99.90;;;;;;5070818;28;20450;-81
2022/09/10 00:44:37;;;;;;;18.75;2.38;;;18.60;99.90;;;;;;5071082;28;20111;-82
2022/09/10 00:47:06;;;;;;;7.75;1.42;;;18.60;99.90;;;;;;5064851;28;20031;-82
2022/09/10 00:49:39;;;;;;;7.55;1.17;;;18.60;99.90;;;;;;5065913;28;20591;-82
2022/09/10 00:52:06;;;;;;;7.05;1.05;;;18.60;99.90;;;;;;5065361;28;20039;-81
2022/09/10 00:54:34;;;;;;;7.18;1.25;;;18.60;99.90;;;;;;5071178;28;20382;-81
2022/09/10 00:57:06;;;;;;;13.30;1.70;;;18.60;99.90;;;;;;5064929;28;20024;-81
2022/09/10 00:59:32;;;;;;;7.65;1.17;;;18.60;99.90;;;;;;5070895;28;20031;-82
2022/09/10 01:01:58;;;;;;;9.50;1.10;;;18.60;99.90;;;;;;5070735;28;20025;-82
2022/09/10 01:04:25;;;;;;;6.63;1.00;;;18.60;99.90;;;;;;5070612;28;20016;-81
2022/09/10 01:06:51;;;;;;;7.05;1.15;;;18.60;99.90;;;;;;5070694;28;20020;-81
2022/09/10 01:09:20;;;;;;;7.22;1.08;;;18.60;99.90;;;;;;5070934;28;20063;-81
2022/09/10 01:12:04;;;;;;;9.27;1.30;;;18.60;99.90;;;;;;5068615;28;20032;-81
2022/09/10 01:14:38;;;;;;;12.65;1.63;;;18.60;99.90;;;;;;5070508;28;20059;-81
2022/09/10 01:17:14;;;;;;;;;;;18.60;99.90;;;;;;5068899;28;20029;-81
2022/09/10 01:19:40;;;;;;;7.63;1.00;;;18.60;99.90;;;;;;5070555;28;20288;-81
2022/09/10 01:22:14;;;;;;;11.05;1.45;;;18.60;99.90;;;;;;5070203;28;20028;-82
2022/09/10 01:24:45;;;;;;;9.95;1.30;;;18.70;99.90;;;;;;5068610;28;20029;-81
2022/09/10 01:27:31;;;;;;;4.85;1.15;;;18.70;99.90;;;;;;5069993;28;20048;-82
2022/09/10 01:30:23;;;;;;;7.35;0.88;;;18.70;99.90;;;;;;5064081;28;20455;-81
2022/09/10 01:32:54;;;;;;;8.35;1.00;;;18.70;99.90;;;;;;5066665;28;20143;-82
2022/09/10 01:35:39;;;;;;;6.28;1.10;;;18.80;99.90;;;;;;5070359;28;20021;-81
2022/09/10 01:38:30;;;;;;;7.93;1.40;;;18.80;99.90;;;;;;5063970;28;20378;-82
2022/09/10 01:40:57;;;;;;;5.63;1.17;;;18.80;99.90;;;;;;5069773;28;20039;-81
2022/09/10 01:43:22;;;;;;;7.38;0.80;;;18.80;99.90;;;;;;5066883;28;20428;-82
2022/09/10 01:45:51;;;;;;;4.57;0.70;;;18.80;99.90;;;;;;5069983;28;20029;-82
2022/09/10 01:48:28;;;;;;;8.13;1.30;;;18.90;99.90;;;;;;5070051;28;20074;-82
2022/09/10 01:51:11;;;;;;;6.15;0.80;;;18.80;99.90;;;;;;5070082;28;20104;-82
2022/09/10 01:53:58;;;;;;;10.88;1.50;;;18.90;99.90;;;;;;5070127;28;20032;-82
2022/09/10 01:56:52;;;;;;;7.45;1.20;;;18.90;99.90;;;;;;5067982;28;20522;-81
2022/09/10 01:59:53;;;;;;;12.57;1.42;;;18.90;99.90;;;;;;5069955;28;20078;-81
2022/09/10 02:02:36;;;;;;;8.70;1.63;;;19.00;99.90;;;;;;5059186;28;20033;-81
2022/09/10 02:05:05;;;;;;;6.45;1.30;;;19.00;99.90;;;;;;5069611;28;20055;-82
2022/09/10 02:07:33;;;;;;;9.60;1.00;;;19.00;99.90;;;;;;5069736;28;20020;-82
2022/09/10 02:10:02;;;;;;;5.38;0.90;;;18.90;99.90;;;;;;5069605;28;20044;-81
2022/09/10 02:12:28;;;;;;;8.52;0.98;;;18.90;99.90;;;;;;5069473;28;20040;-82
2022/09/10 02:14:56;;;;;;;7.25;1.50;;;18.90;99.90;;;;;;5069766;28;20024;-82
2022/09/10 02:17:32;;;;;;;8.50;1.15;;;18.90;99.90;;;;;;5069537;28;20397;-82
2022/09/10 02:20:00;;;;;;;5.40;0.93;;;18.80;99.90;;;;;;5063231;28;20025;-82
2022/09/10 02:22:29;;;;;;;11.10;1.27;;;18.80;99.90;;;;;;5069149;28;20020;-82
2022/09/10 02:24:55;;;;;;;7.38;1.00;;;18.80;99.90;;;;;;5061812;28;20029;-82
2022/09/10 02:27:22;;;;;;;7.97;1.35;;;18.70;99.90;;;;;;5068827;28;20016;-82
2022/09/10 02:29:48;;;;;;;6.15;1.08;;;18.60;99.90;;;;;;5069460;28;20025;-81
2022/09/10 02:32:14;;;;;;;9.68;1.02;;;18.60;99.90;;;;;;5068993;28;20053;-81
2022/09/10 02:34:40;;;;;;;11.52;1.60;;;18.50;99.90;;;;;;5069522;28;20021;-82
2022/09/10 02:37:05;;;;;;;7.85;0.93;;;18.40;99.90;;;;;;5069383;28;20433;-82
2022/09/10 02:39:31;;;;;;;6.15;0.98;;;18.40;99.90;;;;;;5058388;28;20033;-82
2022/09/10 02:42:00;;;;;;;5.97;1.25;;;18.30;99.90;;;;;;5068955;28;20026;-82
2022/09/10 02:44:27;;;;;;;4.85;0.90;;;18.30;99.90;;;;;;5069043;28;20025;-82
2022/09/10 02:46:53;;;;;;;4.10;0.90;;;18.30;99.90;;;;;;5069393;28;20021;-81
2022/09/10 02:49:19;;;;;;;6.80;1.05;;;18.20;99.90;;;;;;5067814;28;20592;-82
2022/09/10 02:51:45;;;;;;;4.80;0.93;;;18.20;99.90;;;;;;5069158;28;20055;-81
2022/09/10 02:54:11;;;;;;;5.25;1.10;;;18.10;99.90;;;;;;5069465;28;20016;-82
2022/09/10 02:56:37;;;;;;;6.13;0.70;;;18.10;99.90;;;;;;5067441;28;20598;-82
2022/09/10 02:59:02;;;;;;;4.90;1.13;;;18.10;99.90;;;;;;5069239;28;20032;-82
2022/09/10 03:01:28;;;;;;;7.78;1.10;;;18.10;99.90;;;;;;5069123;28;20032;-82
2022/09/10 03:03:57;;;;;;;11.30;2.75;;;18.10;99.90;;;;;;5069290;28;20437;-82
2022/09/10 03:06:24;;;;;;;6.60;1.92;;;18.10;99.90;;;;;;5069020;28;20037;-81
2022/09/10 03:08:50;;;;;;;6.88;1.13;;;18.00;99.90;;;;;;5068903;28;20032;-81
2022/09/10 03:11:16;;;;;;;5.75;0.90;;;18.00;99.90;;;;;;5068679;28;20047;-82
2022/09/10 03:13:44;;;;;;;7.00;0.95;;;18.00;99.90;;;;;;5068935;28;20099;-81
2022/09/10 03:16:12;;;;;;;4.75;0.63;;;18.00;99.90;;;;;;5067679;28;20025;-82
2022/09/10 03:18:41;;;;;;;8.13;0.90;;;18.00;99.90;;;;;;5067631;28;20049;-82
2022/09/10 03:21:14;;;;;;;3.90;0.90;;;18.00;99.90;;;;;;5068961;28;20099;-81
2022/09/10 03:23:41;;;;;;;3.90;0.55;;;17.90;99.90;;;;;;5069008;28;20048;-81
2022/09/10 03:26:09;;;;;;;3.40;0.63;;;18.00;99.90;;;;;;5068469;28;20028;-82
2022/09/10 03:28:36;;;;;;;4.68;1.08;;;17.90;99.90;;;;;;5068702;28;20027;-82
2022/09/10 03:31:03;;;;;;;4.25;0.75;;;17.90;99.90;;;;;;5068487;28;20559;-81
2022/09/10 03:33:29;;;;;;;6.68;0.70;;;17.80;99.90;;;;;;5068988;28;20105;-81
2022/09/10 03:35:54;;;;;;;6.35;0.73;;;17.80;99.90;;;;;;5068767;28;20489;-82
2022/09/10 03:38:22;;;;;;;4.28;1.48;;;17.70;99.90;;;;;;5069152;28;20021;-81
2022/09/10 03:40:48;;;;;;;6.82;0.70;;;17.70;99.90;;;;;;5072221;28;20016;-81
2022/09/10 03:43:14;;;;;;;6.03;0.93;;;17.70;99.90;;;;;;5072462;28;20028;-81
2022/09/10 03:45:39;;;;;;;6.68;0.80;;;17.70;99.90;;;;;;5072337;28;20032;-81
2022/09/10 03:48:05;;;;;;;7.07;0.90;;;17.70;99.90;;;;;;5072230;28;20021;-81
2022/09/10 03:50:31;;;;;;;3.55;0.77;;;17.60;99.90;;;;;;5072171;28;20488;-82
2022/09/10 03:52:56;;;;;;;6.63;1.02;;;17.60;99.90;;;;;;5072142;28;20614;-82
2022/09/10 03:55:23;;;;;;;4.90;1.02;;;17.60;99.90;;;;;;5072340;28;20037;-82
2022/09/10 03:57:48;;;;;;;2.97;0.82;;;17.60;99.90;;;;;;5070726;28;20552;-81
2022/09/10 04:00:14;;;;;;;3.90;0.90;;;17.50;99.90;;;;;;5072129;28;20088;-81
2022/09/10 04:02:40;;;;;;;5.57;0.70;;;17.60;99.90;;;;;;5072024;28;20104;-81
2022/09/10 04:05:07;;;;;;;5.13;1.27;;;17.50;99.90;;;;;;5071852;28;20111;-82
2022/09/10 04:07:33;;;;;;;2.05;0.65;;;17.60;99.90;;;;;;5071845;28;20393;-82
2022/09/10 04:09:59;;;;;;;2.88;0.52;;;17.60;99.90;;;;;;5071698;28;20035;-81
2022/09/10 04:12:25;;;;;;;8.65;1.20;;;17.60;99.90;;;;;;5071519;28;20436;-81
2022/09/10 04:14:52;;;;;;;4.60;0.73;;;17.70;99.90;;;;;;5071882;28;20035;-81
2022/09/10 04:17:17;;;;;;;6.45;1.30;;;17.70;99.90;;;;;;5071733;28;20013;-81
2022/09/10 04:19:44;;;;;;;5.70;0.90;;;17.70;99.90;;;;;;5072367;28;20501;-82
2022/09/10 04:22:09;;;;;;;7.20;0.98;;;17.70;99.90;;;;;;5071635;28;20027;-81
2022/09/10 04:24:35;;;;;;;6.00;0.68;;;17.70;99.90;;;;;;5073518;28;20025;-81
2022/09/10 04:27:01;;;;;;;7.35;1.67;;;17.70;99.90;;;;;;5070674;28;20025;-81
2022/09/10 04:29:27;;;;;;;9.18;1.20;;;17.70;99.90;;;;;;5070959;28;20528;-82
2022/09/10 04:31:54;;;;;;;5.28;1.27;;;17.70;99.90;;;;;;5070886;28;20451;-81
2022/09/10 04:34:22;;;;;;;3.97;0.77;;;17.80;99.90;;;;;;5071735;28;20021;-82
2022/09/10 04:36:48;;;;;;;8.63;1.05;;;17.70;99.90;;;;;;5070817;28;20485;-81
2022/09/10 04:39:15;;;;;;;4.47;0.70;;;17.70;99.90;;;;;;5071035;28;20103;-83
2022/09/10 04:41:41;;;;;;;4.70;0.90;;;17.60;99.90;;;;;;5070452;28;20100;-83
2022/09/10 04:44:06;;;;;;;3.65;1.17;;;17.60;99.90;;;;;;5070846;28;20107;-83
2022/09/10 04:46:32;;;;;;;3.75;1.05;;;17.50;99.90;;;;;;5070665;28;20016;-83
2022/09/10 04:48:59;;;;;;;3.38;0.88;;;17.50;99.90;;;;;;5071612;28;20032;-83
2022/09/10 04:51:24;;;;;;;7.25;1.13;;;17.50;99.90;;;;;;5075233;28;20024;-83
2022/09/10 04:53:50;;;;;;;4.40;1.00;;;17.50;99.90;;;;;;5072327;28;20101;-83
2022/09/10 04:56:16;;;;;;;5.18;0.88;;;17.40;99.90;;;;;;5074648;28;20024;-83
2022/09/10 04:58:42;;;;;;;5.63;1.17;;;17.40;99.90;;;;;;5073137;28;20034;-83
2022/09/10 05:01:09;;;;;;;6.47;1.10;;;17.40;99.90;;;;;;5072762;28;20252;-83
2022/09/10 05:03:35;;;;;;;5.15;1.17;;;17.30;99.90;;;;;;5073210;28;20009;-83
2022/09/10 05:06:00;;;;;;;4.68;1.00;;;17.30;99.90;;;;;;5071607;28;20028;-83
2022/09/10 05:08:26;;;;;;;3.42;1.00;;;17.30;99.90;;;;;;5070335;28;20047;-83
2022/09/10 05:10:52;;;;;;;3.90;0.88;;;17.30;99.90;;;;;;5071210;28;20473;-84
2022/09/10 05:13:17;;;;;;;5.88;1.10;;;17.30;99.90;;;;;;5070568;28;20107;-83
2022/09/10 05:15:44;;;;;;;4.10;0.85;;;17.30;99.90;;;;;;5071755;28;20020;-83
2022/09/10 05:18:10;;;;;;;4.63;0.90;;;17.30;99.90;;;;;;5070022;28;20021;-84
2022/09/10 05:20:36;;;;;;;7.03;1.42;;;17.30;99.90;;;;;;5071533;28;20450;-84
2022/09/10 05:23:01;;;;;;;3.30;1.00;;;17.30;99.90;;;;;;5070493;28;20070;-83
2022/09/10 05:25:27;;;;;;;5.72;0.93;;;17.30;99.90;;;;;;5069422;28;20033;-83
2022/09/10 05:27:54;;;;;;;5.45;1.10;;;17.20;99.90;;;;;;5071854;28;20023;-84
2022/09/10 05:30:20;;;;;;;6.85;1.17;;;17.20;99.90;;;;;;5071883;28;20376;-83
2022/09/10 05:32:46;;;;;;;6.53;1.13;;;17.20;99.90;;;;;;5070407;28;20055;-83
2022/09/10 05:35:12;;;;;;;3.50;1.08;;;17.20;99.90;;;;;;5070651;28;20024;-83
2022/09/10 05:37:38;;;;;;;6.25;1.42;;;17.20;99.90;;;;;;5071056;28;20435;-84
2022/09/10 05:40:06;;;;;;;6.07;1.30;;;17.20;99.90;;;;;;5071758;28;20088;-83
2022/09/10 05:42:32;;;;;;;3.20;0.90;;;17.20;99.90;;;;;;5073629;28;20090;-83
2022/09/10 05:44:58;;;;;;;7.93;1.65;;;17.20;99.90;;;;;;5070494;28;20638;-83
2022/09/10 05:47:23;;;;;;;3.92;1.00;;;17.20;99.90;;;;;;5073215;28;20029;-84
2022/09/10 05:49:50;;;;;;;3.53;1.20;;;17.20;99.90;;;;;;5069983;28;20048;-83
2022/09/10 05:52:16;;;;;;;6.35;1.10;;;17.20;99.90;;;;;;5069990;28;20050;-83
2022/09/10 05:54:43;;;;;;;7.13;1.92;;;17.20;99.90;;;;;;5072275;28;20025;-83
2022/09/10 05:57:09;;;;;;;3.72;0.90;;;17.30;99.90;;;;;;5069829;28;20434;-83
2022/09/10 05:59:35;;;;;;;5.18;1.35;;;17.30;99.90;;;;;;5069826;28;20036;-82
2022/09/10 06:02:00;;;;;;;9.57;1.52;;;17.30;99.90;;;;;;5069217;28;20013;-82
2022/09/10 06:04:26;;;;;;;6.40;1.50;;;17.30;99.90;;;;;;5069794;28;20396;-82
2022/09/10 06:06:53;;;;;;;7.28;1.02;;;17.30;99.90;;;;;;5069842;28;20091;-82
2022/09/10 06:09:18;;;;;;;4.07;1.00;;;17.30;99.90;;;;;;5069814;28;20499;-82
2022/09/10 06:11:47;;;;;;;4.97;1.30;;;17.40;99.90;;;;;;5069192;28;20563;-82
2022/09/10 06:14:14;;;;;;;5.70;1.30;;;17.40;99.90;;;;;;5069554;28;20109;-82
2022/09/10 06:16:40;;;;;;;6.43;1.20;;;17.40;99.90;;;;;;5068113;28;20186;-82
2022/09/10 06:19:07;;;;;;;5.45;1.30;;;17.50;99.90;;;;;;5067823;28;20428;-82
2022/09/10 06:21:33;;;;;;;6.63;1.30;;;17.60;99.90;;;;;;5069402;28;20012;-82
2022/09/10 06:23:59;;;;;;;7.18;1.50;;;17.70;99.90;;;;;;5069532;28;20717;-82
2022/09/10 06:26:24;;;;;;;5.45;1.40;;;17.70;99.90;;;;;;5069241;28;20024;-82
2022/09/10 06:28:50;;;;;;;7.78;1.80;;;17.80;99.90;;;;;;5069384;28;20021;-82
2022/09/10 06:31:16;;;;;;;4.63;1.77;;;17.90;99.90;;;;;;5069178;28;20055;-82
2022/09/10 06:33:47;;;;;;;7.32;1.98;;;17.90;99.90;;;;;;5069345;28;20028;-82
2022/09/10 06:36:13;;;;;;;5.70;1.70;;;18.00;99.90;;;;;;5069381;28;20512;-82
2022/09/10 06:38:39;;;;;;;5.07;1.60;;;18.10;99.90;;;;;;5069334;28;20027;-82
2022/09/10 06:41:07;;;;;;;9.25;1.95;;;18.20;99.90;;;;;;5069141;28;20028;-80
2022/09/10 06:43:35;;;;;;;5.50;1.90;;;18.20;99.90;;;;;;5070823;28;20012;-80
2022/09/10 06:46:04;;;;;;;6.35;1.67;;;18.20;99.90;;;;;;5073815;28;20309;-80
2022/09/10 06:48:30;;;;;;;7.50;1.80;;;18.30;99.90;;;;;;5068822;28;20044;-80
2022/09/10 06:51:00;;;;;;;6.90;1.52;;;18.30;99.90;;;;;;5069302;28;20017;-80
2022/09/10 06:53:32;;;;;;;7.10;1.50;;;18.30;99.90;;;;;;5070693;28;20503;-80
2022/09/10 06:55:59;;;;;;;4.28;1.48;;;18.30;99.90;;;;;;5069878;28;20047;-81
2022/09/10 06:58:27;;;;;;;6.53;1.67;;;18.40;99.90;;;;;;5068935;28;20024;-81
2022/09/10 07:00:53;;;;;;;5.65;1.40;;;18.40;99.90;;;;;;5069123;28;20025;-81
2022/09/10 07:03:20;;;;;;;6.63;1.55;;;18.40;99.90;;;;;;5069089;28;20035;-81
2022/09/10 07:05:46;;;;;;;7.32;1.55;;;18.50;99.90;;;;;;5069229;28;20021;-81
2022/09/10 07:08:16;;;;;;;7.30;1.40;;;18.60;99.90;;;;;;5069222;28;20035;-80
2022/09/10 07:10:43;;;;;;;10.48;1.50;;;18.70;99.90;;;;;;5068603;28;20436;-79
2022/09/10 07:13:11;;;;;;;9.00;1.42;;;18.70;99.90;;;;;;5069314;28;20029;-80
2022/09/10 07:15:45;;;;;;;9.70;1.20;;;18.80;99.90;;;;;;5072762;28;20166;-79
2022/09/10 07:18:14;;;;;;;5.95;1.10;;;18.90;99.90;;;;;;5071226;28;20393;-79
2022/09/10 07:20:42;;;;;;;7.55;1.20;;;19.00;99.90;;;;;;5072742;28;20017;-85
2022/09/10 07:23:12;;;;;;;6.90;0.90;;;19.00;99.90;;;;;;5073253;28;20017;-82
2022/09/10 07:25:37;;;;;;;7.15;1.30;;;19.10;99.90;;;;;;5072352;28;20561;-82
2022/09/10 07:28:04;;;;;;;7.43;0.90;;;19.20;99.90;;;;;;5072871;28;20092;-81
2022/09/10 07:30:30;;;;;;;7.57;1.35;;;19.40;99.90;;;;;;5074832;28;20092;-82
2022/09/10 07:32:56;;;;;;;6.90;1.10;;;19.40;99.90;;;;;;5071046;28;20478;-82
2022/09/10 07:35:21;;;;;;;6.35;1.00;;;19.50;99.90;;;;;;5073098;28;20537;-81
2022/09/10 07:37:47;;;;;;;7.72;2.25;;;19.50;99.90;;;;;;5070978;28;20039;-81
2022/09/10 07:40:14;;;;;;;4.78;1.45;;;19.60;99.90;;;;;;5072418;28;20070;-81
2022/09/10 07:42:42;;;;;;;4.82;1.08;;;19.60;99.90;;;;;;5071283;28;20501;-81
2022/09/10 07:45:12;;;;;;;6.20;0.95;;;19.60;99.90;;;;;;5072327;28;20075;-80
2022/09/10 07:47:39;;;;;;;2.83;0.70;;;19.70;99.90;;;;;;5072439;28;20059;-82
2022/09/10 07:50:06;;;;;;;4.82;1.00;;;19.70;99.90;;;;;;5072899;28;20407;-82
2022/09/10 07:52:32;;;;;;;7.47;1.17;;;19.80;99.90;;;;;;5072271;28;20078;-81
2022/09/10 07:54:59;;;;;;;4.90;1.10;;;19.80;99.90;;;;;;5072317;28;20020;-81
2022/09/10 07:57:25;;;;;;;4.88;1.00;;;19.80;99.90;;;;;;5072387;28;20547;-81
2022/09/10 07:59:52;;;;;;;4.15;0.77;;;19.90;99.90;;;;;;5072243;28;20608;-81
2022/09/10 08:02:19;;;;;;;3.25;1.15;;;19.90;99.90;;;;;;5072127;28;20067;-81
2022/09/10 08:04:45;;;;;;;6.97;1.40;;;19.90;99.90;;;;;;5072034;28;20067;-81
2022/09/10 08:07:11;;;;;;;6.70;1.00;;;20.00;99.90;;;;;;5067786;28;20016;-81
2022/09/10 08:09:37;;;;;;;6.70;1.20;;;20.10;99.90;;;;;;5071997;28;20389;-80
2022/09/10 08:12:06;;;;;;;3.75;0.80;;;20.10;99.90;;;;;;5071390;28;20476;-83
2022/09/10 08:14:31;;;;;;;10.32;1.00;;;20.20;99.90;;;;;;5071602;28;20071;-83
2022/09/10 08:16:57;;;;;;;7.68;0.90;;;20.10;99.90;;;;;;5070270;28;20047;-79
2022/09/10 08:19:23;;;;;;;7.28;1.17;;;20.20;99.90;;;;;;5072010;28;20103;-79
2022/09/10 08:21:49;;;;;;;4.10;0.70;;;20.30;99.90;;;;;;5073045;28;20020;-78
2022/09/10 08:24:15;;;;;;;5.35;0.93;;;20.30;99.90;;;;;;5071530;28;20032;-79
2022/09/10 08:26:40;;;;;;;4.90;0.73;;;20.30;99.90;;;;;;5069944;28;20032;-78
2022/09/10 08:29:06;;;;;;;4.88;1.00;;;20.40;99.90;;;;;;5071483;28;20035;-78
2022/09/10 08:31:32;;;;;;;7.10;0.90;;;20.40;99.90;;;;;;5071249;28;20539;-78
2022/09/10 08:33:58;;;;;;;5.65;1.02;;;20.40;99.90;;;;;;5071160;28;20017;-78
2022/09/10 08:36:25;;;;;;;5.75;0.70;;;20.40;99.90;;;;;;5071796;28;20035;-77
2022/09/10 08:38:51;;;;;;;6.15;0.80;;;20.30;99.90;;;;;;5071400;28;20070;-79
2022/09/10 08:41:37;;;;;;;7.30;0.70;;;20.30;99.90;;;;;;5070995;28;20982;-79
2022/09/10 08:44:08;;;;;;;4.25;1.20;;;20.20;99.90;;;;;;5065990;28;20477;-78
2022/09/10 08:46:41;;;;;;;6.78;1.13;;;20.30;99.90;;;;;;5070960;28;20035;-79
2022/09/10 08:49:15;;;;;;;4.10;0.75;;;20.40;99.90;;;;;;5069968;28;20592;-80
2022/09/10 08:51:44;;;;;;;;;;;20.60;99.90;;;;;;5071328;28;20263;-82
2022/09/10 08:54:20;;;;;;;6.55;0.80;;;20.80;99.90;;;;;;5071520;28;19905;-81
2022/09/10 08:56:47;;;;;;;6.10;0.85;;;20.80;99.90;;;;;;5070676;28;20029;-82
2022/09/10 08:59:26;;;;;;;7.53;0.95;;;20.80;99.90;;;;;;5071070;28;20017;-79
2022/09/10 09:02:04;;;;;;;5.45;0.73;;;20.90;99.90;;;;;;5071079;28;20021;-80
2022/09/10 09:04:43;;;;;;;4.90;1.10;;;21.10;99.90;;;;;;5063270;28;20111;-80
2022/09/10 09:07:15;;;;;;;3.40;0.60;;;21.10;99.90;;;;;;5070677;28;20114;-79
2022/09/10 09:09:41;;;;;;;4.47;1.05;;;21.20;99.90;;;;;;5070610;28;20021;-81
2022/09/10 09:12:28;;;;;;;7.53;0.90;;;21.10;99.90;;;;;;5070286;28;20074;-80
2022/09/10 09:15:14;;;;;;;6.88;1.00;;;21.10;99.90;;;;;;5070559;28;20028;-81
2022/09/10 09:17:46;;;;;;;4.97;0.68;;;21.20;99.90;;;;;;5063119;28;20028;-82
2022/09/10 09:20:36;;;;;;;5.35;0.70;;;21.10;99.90;;;;;;5069150;28;20459;-81
2022/09/10 09:23:12;;;;;;;5.10;1.00;;;21.20;99.90;;;;;;5070690;28;20419;-82
2022/09/10 09:25:52;;;;;;;8.25;1.00;;;21.30;99.90;;;;;;5069934;28;20021;-80
2022/09/10 09:28:40;;;;;;;5.90;0.95;;;21.40;99.90;;;;;;5064103;28;20111;-81
2022/09/10 09:31:12;;;;;;;6.80;1.20;;;21.40;99.90;;;;;;5066524;28;20538;-80
2022/09/10 09:33:39;;;;;;;10.85;1.40;;;21.30;99.90;;;;;;5068802;28;20377;-82
2022/09/10 09:36:06;;;;;;;7.00;0.90;;;21.30;99.90;;;;;;5069494;28;20078;-82
2022/09/10 09:38:44;;;;;;;7.18;0.77;;;21.30;99.90;;;;;;5069744;28;20056;-83
2022/09/10 09:41:19;;;;;;;8.55;1.38;;;21.30;99.90;;;;;;5069463;28;20048;-83
2022/09/10 09:43:50;;;;;;;6.07;0.90;;;21.40;99.90;;;;;;5070092;28;20024;-85
2022/09/10 09:46:18;;;;;;;5.57;0.90;;;21.70;99.90;;;;;;5070023;28;20107;-83
2022/09/10 09:48:46;;;;;;;4.85;0.98;;;21.90;99.90;;;;;;5069859;28;20442;-85
2022/09/10 09:51:20;;;;;;;6.20;0.80;;;22.10;99.90;;;;;;5069846;28;20481;-82
2022/09/10 09:53:48;;;;;;;10.27;1.25;;;22.10;99.90;;;;;;5070025;28;20033;-82
2022/09/10 09:56:41;;;;;;;6.45;0.90;;;21.80;99.90;;;;;;5063514;28;20052;-83
2022/09/10 09:59:26;;;;;;;5.85;1.10;;;21.90;99.90;;;;;;5058630;28;20033;-83
2022/09/10 10:01:55;;;;;;;6.22;0.93;;;22.00;99.90;;;;;;5069619;28;20029;-82
2022/09/10 10:04:24;;;;;;;5.47;1.00;;;22.00;99.90;;;;;;5069758;28;20055;-83
2022/09/10 10:06:58;;;;;;;5.13;0.85;;;22.00;99.90;;;;;;5069632;28;20048;-85
2022/09/10 10:09:32;;;;;;;5.32;0.60;;;22.10;99.90;;;;;;5064067;28;20063;-82
2022/09/10 10:12:05;;;;;;;5.38;0.93;;;22.20;99.90;;;;;;5066665;28;20064;-82
2022/09/10 10:14:30;;;;;;;4.47;1.20;;;22.20;99.90;;;;;;5069939;28;20024;-82
2022/09/10 10:17:00;;;;;;;3.35;0.60;;;22.50;99.90;;;;;;5067785;28;20027;-81
2022/09/10 10:19:39;;;;;;;10.75;0.93;;;22.70;99.90;;;;;;5069584;28;20495;-80
2022/09/10 10:22:15;;;;;;;4.72;0.98;;;22.90;99.90;;;;;;5068992;28;20029;-79
2022/09/10 10:24:42;;;;;;;6.57;0.85;;;23.20;99.90;;;;;;5068388;28;20113;-80
2022/09/10 10:27:40;;;;;;;5.05;0.80;;;23.20;99.90;;;;;;5068837;28;20270;-80
2022/09/10 10:30:20;;;;;;;6.25;0.90;;;23.00;99.90;;;;;;5063533;28;20040;-80
2022/09/10 10:32:54;;;;;;;5.95;0.80;;;22.80;99.90;;;;;;5067576;28;20051;-79
2022/09/10 10:35:35;;;;;;;7.88;1.20;;;22.80;99.90;;;;;;5075600;28;20221;-79
2022/09/10 10:38:24;;;;;;;5.07;0.68;;;22.90;99.90;;;;;;5079428;28;20020;-79
2022/09/10 10:41:08;;;;;;;5.38;1.02;;;23.10;99.90;;;;;;5080247;28;20039;-79
2022/09/10 10:44:11;;;;;;;8.45;0.90;;;23.50;99.90;;;;;;5079765;28;20024;-78
2022/09/10 10:46:37;;;;;;;6.28;0.90;;;23.80;99.90;;;;;;5069899;28;20439;-79
2022/09/10 10:49:24;;;;;;;4.95;1.00;;;24.00;99.90;;;;;;5070614;28;20074;-79
2022/09/10 10:51:55;;;;;;;6.55;1.10;;;24.10;99.90;;;;;;5081605;28;20119;-78
2022/09/10 10:54:28;;;;;;;7.90;1.58;;;24.00;99.90;;;;;;5080909;28;20021;-78
2022/09/10 10:57:29;;;;;;;6.78;1.02;;;23.70;99.90;;;;;;5072559;28;20271;-79
2022/09/10 11:00:11;;;;;;;3.75;0.80;;;23.80;99.90;;;;;;5068145;28;20198;-77
2022/09/10 11:02:51;;;;;;;8.05;0.98;;;23.80;99.90;;;;;;5073250;28;20021;-79
2022/09/10 11:05:17;;;;;;;3.30;0.95;;;23.50;99.90;;;;;;5073283;28;20016;-79
2022/09/10 11:07:43;;;;;;;5.43;1.20;;;23.30;99.90;;;;;;5073184;28;20035;-79
2022/09/10 11:10:44;;;;;;;4.53;0.88;;;23.30;99.90;;;;;;5072720;28;20078;-78
2022/09/10 11:13:47;;;;;;;6.30;0.90;;;23.30;99.90;;;;;;5049234;28;20032;-79
2022/09/10 11:16:45;;;;;;;5.63;1.35;;;23.60;99.90;;;;;;5067398;28;20108;-78
2022/09/10 11:19:23;;;;;;;8.98;1.17;;;23.70;99.90;;;;;;5072550;28;20043;-80
2022/09/10 11:21:59;;;;;;;4.07;0.80;;;23.90;99.90;;;;;;5066974;28;20025;-80
2022/09/10 11:24:28;;;;;;;3.25;0.88;;;24.00;99.90;;;;;;5072923;28;20013;-84
2022/09/10 11:27:15;;;;;;;6.50;1.55;;;23.80;99.90;;;;;;5072442;28;20431;-79
2022/09/10 11:29:48;;;;;;;9.07;1.27;;;23.90;99.90;;;;;;5072609;28;20063;-79
2022/09/10 11:32:30;;;;;;;7.07;1.20;;;23.80;99.90;;;;;;5072256;28;20106;-79
2022/09/10 11:35:04;;;;;;;7.53;1.45;;;23.70;99.90;;;;;;5068471;28;20592;-78
2022/09/10 11:37:55;;;;;;;6.30;1.17;;;23.90;99.90;;;;;;5067110;28;20117;-78
2022/09/10 11:40:34;;;;;;;7.53;1.00;;;23.60;99.90;;;;;;5069979;28;20024;-77
2022/09/10 11:43:06;;;;;;;5.15;1.20;;;23.60;99.90;;;;;;5072566;28;20028;-77
2022/09/10 11:45:31;;;;;;;8.40;1.30;;;23.80;99.90;;;;;;5072613;28;20557;-79
2022/09/10 11:48:04;;;;;;;8.20;1.05;;;23.80;99.90;;;;;;5072404;28;20111;-77
2022/09/10 11:51:07;;;;;;;4.60;0.93;;;23.60;99.90;;;;;;5072355;28;20025;-77
2022/09/10 11:53:35;;;;;;;7.97;1.42;;;23.80;99.90;;;;;;5051811;28;20051;-77
2022/09/10 11:56:31;;;;;;;7.22;1.20;;;23.60;99.90;;;;;;5071700;28;20120;-81
2022/09/10 11:58:59;;;;;;;11.38;2.08;;;23.30;99.90;;;;;;5029099;28;20216;-79
2022/09/10 12:01:48;;;;;;;9.23;1.33;;;23.50;99.90;;;;;;5072269;28;20021;-80
2022/09/10 12:04:46;;;;;;;10.60;1.48;;;23.80;99.90;;;;;;5072262;28;20115;-79
2022/09/10 12:07:37;;;;;;;8.95;1.23;;;23.80;99.90;;;;;;5067502;28;20023;-79
2022/09/10 12:10:33;;;;;;;11.10;1.63;;;24.00;99.90;;;;;;5071630;28;20039;-80
2022/09/10 12:12:59;;;;;;;7.38;1.25;;;24.40;99.90;;;;;;5068164;28;20496;-80
2022/09/10 12:15:30;;;;;;;7.47;1.17;;;24.90;99.90;;;;;;5080978;28;20034;-81
2022/09/10 12:18:15;;;;;;;8.45;1.00;;;24.70;99.90;;;;;;5071742;28;20123;-80
2022/09/10 12:21:04;;;;;;;4.50;0.98;;;24.80;99.90;;;;;;5082023;28;20080;-80
2022/09/10 12:23:36;;;;;;;6.47;1.08;;;25.00;99.90;;;;;;5073559;28;20517;-80
2022/09/10 12:26:14;;;;;;;7.78;1.02;;;25.40;99.90;;;;;;5068303;28;20025;-78
2022/09/10 12:28:44;;;;;;;3.30;0.85;;;25.20;99.90;;;;;;5071253;28;20532;-79
2022/09/10 12:31:15;;;;;;;6.70;0.82;;;24.90;99.90;;;;;;5071703;28;20623;-78
2022/09/10 12:33:43;;;;;;;4.82;0.88;;;24.70;99.90;;;;;;5070830;28;20055;-80
2022/09/10 12:36:12;;;;;;;7.88;0.90;;;24.60;99.90;;;;;;5066242;28;20021;-79
2022/09/10 12:38:44;;;;;;;9.45;1.17;;;24.50;99.90;;;;;;5070697;28;20017;-80
2022/09/10 12:41:13;;;;;;;7.30;1.52;;;24.00;99.90;;;;;;5057317;28;20025;-79
2022/09/10 12:43:39;;;;;;;4.28;0.80;;;23.80;99.90;;;;;;5070463;28;20031;-80
2022/09/10 12:46:07;;;;;;;8.77;1.10;;;24.00;99.90;;;;;;5071037;28;20103;-80
2022/09/10 12:48:45;;;;;;;3.78;0.82;;;24.30;99.90;;;;;;5071216;28;20515;-80
2022/09/10 12:51:17;;;;;;;6.00;1.13;;;24.40;99.90;;;;;;5070852;28;20016;-79
2022/09/10 12:53:42;;;;;;;5.82;1.27;;;24.70;99.90;;;;;;5069450;28;20039;-79
2022/09/10 12:56:17;;;;;;;5.65;1.02;;;24.90;99.90;;;;;;5070602;28;20025;-79
2022/09/10 12:58:53;;;;;;;5.95;1.30;;;24.70;99.90;;;;;;5070981;28;20427;-79
2022/09/10 13:01:36;;;;;;;6.60;1.00;;;24.70;99.90;;;;;;5064995;28;20083;-80
2022/09/10 13:04:02;;;;;;;6.20;1.30;;;25.10;99.90;;;;;;5071024;28;20023;-79